Terminal Aerodrome Forecast
Issued by NWS

Home | Current Version | Previous Version | Text Only | Print | Product List | Glossary On
Versions: 1 2 3 4 5 6 7 8 9 10 11 12 13 14 15 16 17 18 19 20 21 22 23 24 25 26 27 28 29 30 31 32 33 34 35 36 37 38 39 40
000
FTUS43 KDMX 231140
TAFOTM
TAF
KOTM 231140Z 2312/2412 02012KT P6SM OVC009
     FM231600 04010KT P6SM BKN040
     FM231800 06010KT P6SM VCSH BKN070
     FM232200 09015G23KT P6SM VCSH BKN040
     FM240000 09014G23KT P6SM -SHRA BKN020
     FM240200 09017G26KT 4SM -SHRA BR OVC007
     FM240600 08015G25KT P6SM VCSH OVC007=

USA.gov is the U.S. government's official web portal to all federal, state and local government web resources and services.